createdAt,value
2023-03-10T00:00:49.149Z,0.1
2023-03-10T00:02:49.132Z,0.1
2023-03-10T00:04:52.252Z,0.1
2023-03-10T00:06:49.106Z,0.1
2023-03-10T00:08:49.152Z,0.1
2023-03-10T00:10:49.134Z,0
2023-03-10T00:12:49.139Z,0
2023-03-10T00:14:49.173Z,0
2023-03-10T00:16:49.122Z,0.1
2023-03-10T00:18:52.470Z,1
2023-03-10T00:20:49.162Z,0
2023-03-10T00:22:49.133Z,1
2023-03-10T00:24:49.126Z,1
2023-03-10T00:26:49.115Z,0
2023-03-10T00:28:49.186Z,1
2023-03-10T00:30:49.149Z,0
2023-03-10T00:32:52.366Z,0
2023-03-10T00:34:49.169Z,0
2023-03-10T00:36:49.135Z,0
2023-03-10T00:38:49.148Z,0
2023-03-10T00:40:52.281Z,0
2023-03-10T00:42:49.117Z,0
2023-03-10T00:44:48.998Z,1
2023-03-10T00:46:49.185Z,0
2023-03-10T00:48:52.181Z,0.1
2023-03-10T00:50:49.036Z,0.1
2023-03-10T00:52:49.165Z,0
2023-03-10T00:54:49.113Z,0
2023-03-10T00:56:49.184Z,0
2023-03-10T00:58:49.239Z,0
2023-03-10T01:00:52.293Z,0
2023-03-10T01:02:52.228Z,0
2023-03-10T01:04:52.156Z,0
2023-03-10T01:06:49.173Z,0
2023-03-10T01:08:49.010Z,0.1
2023-03-10T01:10:49.161Z,0
2023-03-10T01:12:49.182Z,0
2023-03-10T01:14:49.157Z,0
2023-03-10T01:16:49.145Z,0
2023-03-10T01:18:49.173Z,0
2023-03-10T01:20:49.165Z,0
2023-03-10T01:22:49.188Z,1
2023-03-10T01:24:52.235Z,1
2023-03-10T01:26:49.163Z,1
2023-03-10T01:28:49.158Z,1
2023-03-10T01:30:49.146Z,1
2023-03-10T01:32:49.282Z,1
2023-03-10T01:34:49.138Z,1
2023-03-10T01:36:52.249Z,1
2023-03-10T01:38:49.161Z,1
2023-03-10T01:40:49.196Z,1
2023-03-10T01:42:49.160Z,1
2023-03-10T01:44:52.166Z,1
2023-03-10T01:46:52.290Z,1
2023-03-10T01:48:49.147Z,1
2023-03-10T01:50:49.152Z,1
2023-03-10T01:52:49.212Z,1
2023-03-10T01:54:55.247Z,1
2023-03-10T01:56:52.273Z,1
2023-03-10T01:58:49.222Z,1
2023-03-10T02:00:52.318Z,1
2023-03-10T02:02:49.164Z,1
2023-03-10T02:04:49.171Z,1
2023-03-10T02:06:49.174Z,1
2023-03-10T02:08:49.138Z,1
2023-03-10T02:10:52.789Z,1
2023-03-10T02:12:49.173Z,1
2023-03-10T02:14:49.194Z,1
2023-03-10T02:16:49.170Z,1
2023-03-10T02:18:49.187Z,1
2023-03-10T02:22:49.157Z,1
2023-03-10T02:24:49.200Z,1
2023-03-10T02:26:49.207Z,1
2023-03-10T02:30:49.199Z,1
2023-03-10T02:32:49.194Z,1
2023-03-10T02:34:49.204Z,1
2023-03-10T02:36:49.205Z,1
2023-03-10T02:38:52.285Z,1
2023-03-10T02:40:49.176Z,1
2023-03-10T02:42:49.202Z,1
2023-03-10T02:44:49.179Z,1
2023-03-10T02:46:49.179Z,1
2023-03-10T02:48:49.212Z,1
2023-03-10T02:50:49.222Z,1
2023-03-10T02:52:52.259Z,1
2023-03-10T02:54:52.256Z,1
2023-03-10T02:56:49.184Z,1
2023-03-10T02:58:49.167Z,1
2023-03-10T03:00:49.239Z,1
2023-03-10T03:02:49.142Z,1
2023-03-10T03:04:52.299Z,1
2023-03-10T03:06:49.189Z,1
2023-03-10T03:08:49.147Z,1
2023-03-10T03:10:52.489Z,1
2023-03-10T03:12:52.249Z,1
2023-03-10T03:14:49.224Z,1
2023-03-10T03:16:49.291Z,1
2023-03-10T03:18:49.190Z,1
2023-03-10T03:20:49.203Z,1
2023-03-10T03:22:49.213Z,1
2023-03-10T03:24:49.169Z,1
2023-03-10T03:26:49.203Z,1
2023-03-10T03:30:49.130Z,1
2023-03-10T03:32:49.295Z,1
2023-03-10T03:34:55.323Z,1
2023-03-10T03:36:49.180Z,1
2023-03-10T03:38:49.243Z,1
2023-03-10T03:40:49.207Z,1
2023-03-10T03:42:49.194Z,1
2023-03-10T03:44:49.180Z,1
2023-03-10T03:46:49.179Z,1
2023-03-10T03:48:48.675Z,1
2023-03-10T03:50:49.200Z,1
2023-03-10T03:52:49.155Z,1
2023-03-10T03:54:49.068Z,1
2023-03-10T03:56:52.329Z,1
2023-03-10T03:58:49.148Z,1
2023-03-10T04:00:51.247Z,1
2023-03-10T04:02:49.265Z,1
2023-03-10T04:04:49.062Z,1
2023-03-10T04:06:52.237Z,1
2023-03-10T04:08:52.311Z,1
2023-03-10T04:10:52.315Z,1
2023-03-10T04:12:49.188Z,1
2023-03-10T04:14:49.177Z,1
2023-03-10T04:16:49.396Z,1
2023-03-10T04:18:49.209Z,1
2023-03-10T04:20:49.194Z,1
2023-03-10T04:22:49.205Z,1
2023-03-10T04:24:49.207Z,1
2023-03-10T04:26:49.199Z,1
2023-03-10T04:28:49.223Z,1
2023-03-10T04:30:49.222Z,1
2023-03-10T04:32:52.382Z,1
2023-03-10T04:34:55.311Z,1
2023-03-10T04:36:52.356Z,1
2023-03-10T04:38:52.278Z,1
2023-03-10T04:40:49.229Z,1
2023-03-10T04:42:49.182Z,1
2023-03-10T04:44:55.362Z,1
2023-03-10T04:46:49.199Z,1
2023-03-10T04:48:49.232Z,1
2023-03-10T04:52:49.187Z,1
2023-03-10T04:54:52.308Z,1
2023-03-10T04:56:49.186Z,1
2023-03-10T04:58:49.197Z,1
2023-03-10T05:01:02.084Z,1
2023-03-10T05:02:49.100Z,1
2023-03-10T05:04:49.283Z,0
2023-03-10T05:06:52.434Z,0
2023-03-10T05:08:49.196Z,0
2023-03-10T05:10:49.211Z,0.1
2023-03-10T05:12:49.087Z,0.1
2023-03-10T05:14:49.224Z,0.2
2023-03-10T05:16:52.311Z,0.3
2023-03-10T05:18:49.218Z,0.4
2023-03-10T05:20:49.219Z,0.7
2023-03-10T05:22:55.306Z,1.2
2023-03-10T05:24:49.221Z,1.9
2023-03-10T05:26:52.551Z,3
2023-03-10T05:28:55.317Z,4.7
2023-03-10T05:30:49.187Z,6.4
2023-03-10T05:32:49.294Z,8.6
2023-03-10T05:34:49.276Z,11.6
2023-03-10T05:36:49.230Z,15.6
2023-03-10T05:40:49.189Z,25.8
2023-03-10T05:42:49.237Z,33.1
2023-03-10T05:44:52.343Z,44.7
2023-03-10T05:46:49.326Z,60.3
2023-03-10T05:48:49.210Z,77.5
2023-03-10T05:50:52.273Z,99.5
2023-03-10T05:52:49.229Z,121.5
2023-03-10T05:54:49.244Z,148.4
2023-03-10T05:56:49.194Z,172.4
2023-03-10T05:58:49.227Z,200.3
2023-03-10T06:00:49.235Z,244.7
2023-03-10T06:02:52.339Z,284.3
2023-03-10T06:04:49.234Z,330.3
2023-03-10T06:06:55.507Z,403.4
2023-03-10T06:08:55.284Z,468.7
2023-03-10T06:10:49.168Z,518
2023-03-10T06:12:49.207Z,601.8
2023-03-10T06:14:49.235Z,665.1
2023-03-10T06:16:52.286Z,735.1
2023-03-10T06:18:52.346Z,812.4
2023-03-10T06:20:49.230Z,897.8
2023-03-10T06:22:52.414Z,992.3
2023-03-10T06:24:49.270Z,1152.9
2023-03-10T06:26:49.282Z,1212
2023-03-10T06:28:52.266Z,1212
2023-03-10T06:30:49.218Z,1274.1
2023-03-10T06:32:49.363Z,1212
2023-03-10T06:34:49.260Z,1212
2023-03-10T06:36:49.216Z,1152.9
2023-03-10T06:38:49.273Z,1212
2023-03-10T06:40:49.227Z,1274.1
2023-03-10T06:42:52.278Z,1339.4
2023-03-10T06:44:49.303Z,1408.1
2023-03-10T06:46:52.330Z,1480.3
2023-03-10T06:48:52.340Z,1480.3
2023-03-10T06:50:49.238Z,1480.3
2023-03-10T06:52:49.254Z,1480.3
2023-03-10T06:54:49.241Z,1480.3
2023-03-10T06:56:52.329Z,1480.3
2023-03-10T06:58:52.358Z,1556.2
2023-03-10T07:00:49.287Z,1636
2023-03-10T07:02:49.257Z,1636
2023-03-10T07:04:49.299Z,1636
2023-03-10T07:06:49.218Z,1636
2023-03-10T07:08:52.332Z,1636
2023-03-10T07:10:52.342Z,1636
2023-03-10T07:12:52.311Z,1719.9
2023-03-10T07:14:49.135Z,1808
2023-03-10T07:16:52.359Z,1900.7
2023-03-10T07:18:49.236Z,2100.6
2023-03-10T07:20:52.309Z,2321.6
2023-03-10T07:22:49.226Z,2440.6
2023-03-10T07:24:52.389Z,2697.3
2023-03-10T07:26:49.265Z,2981
2023-03-10T07:30:49.391Z,3641
2023-03-10T07:32:49.238Z,4023.9
2023-03-10T07:34:49.247Z,4230.2
2023-03-10T07:36:49.289Z,4447.1
2023-03-10T07:38:49.255Z,4914.8
2023-03-10T07:40:49.274Z,6002.9
2023-03-10T07:42:49.199Z,6974.4
2023-03-10T07:44:52.267Z,8518.5
2023-03-10T07:46:52.317Z,8103.1
2023-03-10T07:48:49.237Z,8955.3
2023-03-10T07:50:49.219Z,7707.9
2023-03-10T07:52:52.337Z,6974.4
2023-03-10T07:54:49.255Z,8518.5
2023-03-10T07:56:51.061Z,10404.6
2023-03-10T08:00:49.262Z,7332
2023-03-10T08:02:52.286Z,7707.9
2023-03-10T08:04:49.257Z,9414.4
2023-03-10T08:06:49.322Z,10938
2023-03-10T08:08:49.221Z,10404.6
2023-03-10T08:10:49.214Z,10938
2023-03-10T08:12:49.272Z,9897.1
2023-03-10T08:14:49.278Z,12708.2
2023-03-10T08:20:52.338Z,16317.6
2023-03-10T08:22:49.202Z,14764.8
2023-03-10T08:24:49.249Z,18033.7
2023-03-10T08:26:55.447Z,17154.2
2023-03-10T08:28:48.859Z,16317.6
2023-03-10T08:31:02.819Z,15521.8
2023-03-10T08:32:49.978Z,23155.8
2023-03-10T08:34:48.981Z,26903.2
2023-03-10T08:36:51.935Z,22026.5
2023-03-10T08:38:55.079Z,26903.2
2023-03-10T08:40:51.973Z,34544.4
2023-03-10T08:42:52.319Z,23155.8
2023-03-10T08:46:47.645Z,31257
2023-03-10T08:48:49.019Z,36315.5
2023-03-10T08:50:48.875Z,24343
2023-03-10T08:52:52.199Z,49020.8
2023-03-10T08:54:52.048Z,46630
2023-03-10T08:56:48.974Z,44355.9
2023-03-10T08:58:48.887Z,46630
2023-03-10T09:00:48.979Z,49020.8
2023-03-10T09:02:54.476Z,51534.2
2023-03-10T09:04:48.907Z,40134.8
2023-03-10T09:06:48.871Z,28282.5
2023-03-10T09:08:56.789Z,24343
2023-03-10T09:12:49.179Z,10938
2023-03-10T09:14:54.350Z,9897.1
2023-03-10T09:16:49.005Z,7332
2023-03-10T09:18:49.001Z,8103.1
2023-03-10T09:20:48.909Z,6974.4
2023-03-10T09:22:49.170Z,2981
2023-03-10T09:24:52.057Z,3463.4
2023-03-10T09:26:52.054Z,3641
2023-03-10T09:28:49.015Z,3463.4
2023-03-10T09:30:49.029Z,2565.7
2023-03-10T09:32:54.861Z,1998.2
2023-03-10T09:34:48.994Z,2100.6
2023-03-10T09:36:55.128Z,2565.7
2023-03-10T09:38:48.936Z,2981
2023-03-10T09:40:48.979Z,3133.8
2023-03-10T09:42:49.097Z,3294.5
2023-03-10T09:44:49.094Z,3463.4
2023-03-10T09:46:52.069Z,3827.6
2023-03-10T09:48:49.011Z,4675.1
2023-03-10T09:50:49.025Z,5431.7
2023-03-10T09:52:52.576Z,6002.9
2023-03-10T09:54:48.998Z,8518.5
2023-03-10T09:56:49.007Z,9897.1
2023-03-10T09:58:55.043Z,14044.7
2023-03-10T10:00:49.083Z,16317.6
2023-03-10T10:02:58.656Z,13359.7
2023-03-10T10:04:52.166Z,8955.3
2023-03-10T10:06:49.102Z,6974.4
2023-03-10T10:09:04.057Z,6002.9
2023-03-10T10:10:48.960Z,5431.7
2023-03-10T10:12:50.101Z,4447.1
2023-03-10T10:14:57.584Z,3463.4
2023-03-10T10:16:49.070Z,2697.3
2023-03-10T10:18:52.089Z,2697.3
2023-03-10T10:20:52.087Z,3827.6
2023-03-10T10:22:49.114Z,5431.7
2023-03-10T10:24:49.082Z,5166.8
2023-03-10T10:26:48.905Z,4914.8
2023-03-10T10:28:50.715Z,4914.8
2023-03-10T10:30:52.090Z,5431.7
2023-03-10T10:32:49.145Z,8103.1
2023-03-10T10:34:49.035Z,10404.6
2023-03-10T10:36:50.830Z,17154.2
2023-03-10T10:38:48.998Z,20952.2
2023-03-10T10:40:52.140Z,28282.5
2023-03-10T10:42:48.934Z,51534.2
2023-03-10T10:44:49.003Z,28282.5
2023-03-10T10:46:55.144Z,66171.2
2023-03-10T10:48:55.175Z,76879.9
2023-03-10T10:50:52.112Z,73130.4
2023-03-10T10:52:55.301Z,73130.4
2023-03-10T10:54:49.093Z,80821.6
2023-03-10T10:58:49.092Z,84965.5
2023-03-10T11:00:52.140Z,73130.4
2023-03-10T11:02:49.149Z,73130.4
2023-03-10T11:04:49.382Z,10404.6
2023-03-10T11:06:49.024Z,36315.5
2023-03-10T11:08:48.955Z,11498.8
2023-03-10T11:10:52.039Z,36315.5
2023-03-10T11:12:49.079Z,80821.6
2023-03-10T11:16:52.077Z,13359.7
2023-03-10T11:18:51.188Z,18033.7
2023-03-10T11:20:49.036Z,14044.7
2023-03-10T11:22:55.678Z,8103.1
2023-03-10T11:24:49.128Z,8518.5
2023-03-10T11:26:49.005Z,80821.6
2023-03-10T11:28:49.023Z,19930.4
2023-03-10T11:30:55.161Z,14044.7
2023-03-10T11:32:49.160Z,76879.9
2023-03-10T11:34:48.663Z,17154.2
2023-03-10T11:36:56.124Z,84965.5
2023-03-10T11:38:52.151Z,89321.7
2023-03-10T11:40:52.069Z,84965.5
2023-03-10T11:42:49.082Z,18033.7
2023-03-10T11:44:49.127Z,38177.4
2023-03-10T11:46:49.055Z,32859.6
2023-03-10T11:48:48.968Z,11498.8
2023-03-10T11:50:50.363Z,12088.4
2023-03-10T11:52:49.022Z,84965.5
2023-03-10T11:54:48.696Z,15521.8
2023-03-10T11:56:51.839Z,28282.5
2023-03-10T11:58:52.117Z,11498.8
2023-03-10T12:00:52.098Z,14044.7
2023-03-10T12:02:55.137Z,12708.2
2023-03-10T12:04:48.676Z,15521.8
2023-03-10T12:06:48.953Z,24343
2023-03-10T12:10:47.663Z,15521.8
2023-03-10T12:12:49.044Z,9414.4
2023-03-10T12:14:57.860Z,7332
2023-03-10T12:16:48.985Z,6310.7
2023-03-10T12:18:49.020Z,5710.1
2023-03-10T12:22:52.136Z,9897.1
2023-03-10T12:24:49.084Z,14044.7
2023-03-10T12:26:48.897Z,10938
2023-03-10T12:28:57.383Z,56954
2023-03-10T12:30:49.096Z,9897.1
2023-03-10T12:32:49.062Z,19930.4
2023-03-10T12:34:52.662Z,7707.9
2023-03-10T12:36:49.008Z,5431.7
2023-03-10T12:38:49.022Z,4675.1
2023-03-10T12:40:59.372Z,8518.5
2023-03-10T12:42:52.069Z,8955.3
2023-03-10T12:44:49.110Z,7707.9
2023-03-10T12:46:51.826Z,14764.8
2023-03-10T12:48:52.088Z,5431.7
2023-03-10T12:50:49.001Z,22026.5
2023-03-10T12:52:49.078Z,8518.5
2023-03-10T12:54:48.711Z,6974.4
2023-03-10T12:56:54.000Z,12708.2
2023-03-10T12:58:49.068Z,13359.7
2023-03-10T13:00:52.069Z,8518.5
2023-03-10T13:02:49.053Z,5431.7
2023-03-10T13:04:52.256Z,5166.8
2023-03-10T13:08:49.057Z,6310.7
2023-03-10T13:10:53.516Z,6310.7
2023-03-10T13:12:49.054Z,5166.8
2023-03-10T13:14:52.643Z,8103.1
2023-03-10T13:16:49.113Z,8955.3
2023-03-10T13:18:56.953Z,20952.2
2023-03-10T13:20:48.967Z,7332
2023-03-10T13:22:50.856Z,10404.6
2023-03-10T13:24:48.675Z,8518.5
2023-03-10T13:26:49.073Z,8955.3
2023-03-10T13:28:52.885Z,8955.3
2023-03-10T13:30:48.952Z,7707.9
2023-03-10T13:32:49.117Z,6002.9
2023-03-10T13:34:50.823Z,6974.4
2023-03-10T13:36:49.059Z,19930.4
2023-03-10T13:38:55.121Z,8955.3
2023-03-10T13:40:49.014Z,6634.2
2023-03-10T13:42:49.065Z,4914.8
2023-03-10T13:44:53.058Z,4023.9
2023-03-10T13:46:52.074Z,13359.7
2023-03-10T13:48:49.073Z,5710.1
2023-03-10T13:50:49.080Z,3827.6
2023-03-10T13:52:50.771Z,3133.8
2023-03-10T13:54:48.694Z,3294.5
2023-03-10T13:56:56.465Z,2697.3
2023-03-10T13:58:52.221Z,2981
2023-03-10T14:00:49.002Z,2697.3
2023-03-10T14:02:49.094Z,2321.6
2023-03-10T14:04:50.408Z,3463.4
2023-03-10T14:06:49.006Z,4023.9
2023-03-10T14:08:49.059Z,3463.4
2023-03-10T14:10:49.092Z,4230.2
2023-03-10T14:12:50.719Z,3641
2023-03-10T14:14:52.082Z,4023.9
2023-03-10T14:16:49.150Z,2835.6
2023-03-10T14:18:52.083Z,2440.6
2023-03-10T14:20:52.091Z,2565.7
2023-03-10T14:24:52.167Z,3294.5
2023-03-10T14:26:46.720Z,3827.6
2023-03-10T14:28:49.124Z,3641
2023-03-10T14:30:52.643Z,2835.6
2023-03-10T14:32:49.203Z,1998.2
2023-03-10T14:34:48.722Z,1998.2
2023-03-10T14:36:49.078Z,1636
2023-03-10T14:38:57.000Z,1900.7
2023-03-10T14:40:49.002Z,1998.2
2023-03-10T14:42:49.123Z,2100.6
2023-03-10T14:44:56.611Z,1998.2
2023-03-10T14:46:49.079Z,1719.9
2023-03-10T14:48:49.032Z,1636
2023-03-10T14:50:50.838Z,1719.9
2023-03-10T14:56:49.037Z,1900.7
2023-03-10T14:58:55.159Z,1636
2023-03-10T15:00:49.030Z,1900.7
2023-03-10T15:02:49.141Z,2100.6
2023-03-10T15:04:54.429Z,2100.6
2023-03-10T15:06:49.048Z,1900.7
2023-03-10T15:08:48.950Z,1808
2023-03-10T15:10:49.050Z,1900.7
2023-03-10T15:12:49.177Z,2697.3
2023-03-10T15:14:48.706Z,2565.7
2023-03-10T15:16:56.514Z,2321.6
2023-03-10T15:18:48.958Z,2321.6
2023-03-10T15:20:52.145Z,1998.2
2023-03-10T15:22:49.114Z,1900.7
2023-03-10T15:24:51.254Z,2100.6
2023-03-10T15:26:55.167Z,1339.4
2023-03-10T15:28:52.155Z,1480.3
2023-03-10T15:30:49.107Z,1212
2023-03-10T15:32:49.197Z,992.3
2023-03-10T15:34:48.700Z,992.3
2023-03-10T15:36:49.064Z,992.3
2023-03-10T15:38:50.369Z,992.3
2023-03-10T15:40:49.034Z,601.8
2023-03-10T15:42:49.153Z,544.6
2023-03-10T15:44:51.817Z,572.5
2023-03-10T15:46:52.240Z,665.1
2023-03-10T15:48:49.109Z,601.8
2023-03-10T15:52:49.135Z,518
2023-03-10T15:54:51.830Z,544.6
2023-03-10T15:56:49.013Z,572.5
2023-03-10T15:58:47.644Z,735.1
2023-03-10T16:02:52.259Z,943.9
2023-03-10T16:04:48.759Z,1339.4
2023-03-10T16:06:48.985Z,992.3
2023-03-10T16:08:49.083Z,812.4
2023-03-10T16:10:54.035Z,632.7
2023-03-10T16:12:52.200Z,492.7
2023-03-10T16:14:48.755Z,424.1
2023-03-10T16:16:49.053Z,403.4
2023-03-10T16:18:57.769Z,468.7
2023-03-10T16:20:49.079Z,330.3
2023-03-10T16:22:49.114Z,244.7
2023-03-10T16:24:53.537Z,257.2
2023-03-10T16:26:49.059Z,244.7
2023-03-10T16:28:48.967Z,210.6
2023-03-10T16:30:51.761Z,148.4
2023-03-10T16:34:48.714Z,109.9
2023-03-10T16:36:49.054Z,99.5
2023-03-10T16:38:53.113Z,94.6
2023-03-10T16:40:49.046Z,85.6
2023-03-10T16:42:49.208Z,57.4
2023-03-10T16:44:53.459Z,44.7
2023-03-10T16:46:49.246Z,34.8
2023-03-10T16:48:53.581Z,28.5
2023-03-10T16:50:49.033Z,36.6
2023-03-10T16:52:49.174Z,40.4
2023-03-10T16:54:49.227Z,28.5
2023-03-10T16:56:50.684Z,77.5
2023-03-10T16:58:55.138Z,148.4
2023-03-10T17:00:49.032Z,104.6
2023-03-10T17:02:53.486Z,63.4
2023-03-10T17:04:48.790Z,63.4
2023-03-10T17:06:55.163Z,49.4
2023-03-10T17:08:49.009Z,40.4
2023-03-10T17:10:49.099Z,40.4
2023-03-10T17:12:50.365Z,44.7
2023-03-10T17:14:48.736Z,49.4
2023-03-10T17:16:49.040Z,49.4
2023-03-10T17:18:53.420Z,42.5
2023-03-10T17:20:49.048Z,31.5
2023-03-10T17:22:49.170Z,20.1
2023-03-10T17:24:49.157Z,12.8
2023-03-10T17:26:49.062Z,9
2023-03-10T17:28:52.166Z,4.7
2023-03-10T17:30:49.053Z,2.3
2023-03-10T17:32:52.218Z,1.3
2023-03-10T17:34:48.720Z,0.9
2023-03-10T17:36:49.036Z,0.5
2023-03-10T17:38:53.461Z,0.3
2023-03-10T17:40:49.053Z,0.2
2023-03-10T17:42:49.137Z,0.1
2023-03-10T17:44:51.173Z,0
2023-03-10T17:46:52.192Z,0
2023-03-10T17:48:48.964Z,0
2023-03-10T17:52:52.148Z,0
2023-03-10T17:54:48.808Z,0
2023-03-10T17:56:57.762Z,1
2023-03-10T17:58:49.162Z,1
2023-03-10T18:00:50.411Z,1
2023-03-10T18:02:52.294Z,1
2023-03-10T18:04:51.801Z,1
2023-03-10T18:06:49.102Z,1
2023-03-10T18:08:55.593Z,1
2023-03-10T18:10:49.085Z,1
2023-03-10T18:12:50.458Z,1
2023-03-10T18:14:49.212Z,1
2023-03-10T18:16:49.113Z,1
2023-03-10T18:18:52.221Z,1
2023-03-10T18:20:52.159Z,1
2023-03-10T18:22:49.163Z,1
2023-03-10T18:24:49.176Z,1
2023-03-10T18:26:49.126Z,1
2023-03-10T18:28:51.794Z,1
2023-03-10T18:30:52.174Z,1
2023-03-10T18:32:49.262Z,1
2023-03-10T18:36:49.141Z,1
2023-03-10T18:38:49.151Z,1
2023-03-10T18:40:53.482Z,1
2023-03-10T18:42:47.064Z,1
2023-03-10T18:44:52.274Z,1
2023-03-10T18:46:49.223Z,1
2023-03-10T18:48:49.150Z,1
2023-03-10T18:50:56.577Z,1
2023-03-10T18:52:49.200Z,1
2023-03-10T18:54:49.038Z,1
2023-03-10T18:56:49.096Z,1
2023-03-10T18:58:53.926Z,1
2023-03-10T19:02:49.297Z,1
2023-03-10T19:04:48.789Z,1
2023-03-10T19:08:55.230Z,1
2023-03-10T19:10:49.107Z,1
2023-03-10T19:12:49.163Z,1
2023-03-10T19:14:57.334Z,1
2023-03-10T19:16:49.100Z,1
2023-03-10T19:18:49.148Z,1
2023-03-10T19:20:55.267Z,1
2023-03-10T19:22:49.176Z,1
2023-03-10T19:24:49.184Z,1
2023-03-10T19:26:52.913Z,1
2023-03-10T19:28:52.308Z,1
2023-03-10T19:30:52.240Z,1
2023-03-10T19:32:52.327Z,1
2023-03-10T19:34:48.729Z,1
2023-03-10T19:36:49.099Z,1
2023-03-10T19:38:56.577Z,1
2023-03-10T19:40:49.132Z,1
2023-03-10T19:42:49.136Z,1
2023-03-10T19:44:50.399Z,1
2023-03-10T19:46:52.308Z,1
2023-03-10T19:48:49.133Z,1
2023-03-10T19:50:49.082Z,1
2023-03-10T19:52:49.164Z,1
2023-03-10T19:55:00.647Z,1
2023-03-10T19:56:49.140Z,1
2023-03-10T19:58:49.142Z,1
2023-03-10T20:00:56.822Z,1
2023-03-10T20:02:49.209Z,1
2023-03-10T20:04:48.806Z,1
2023-03-10T20:06:52.174Z,1
2023-03-10T20:08:49.196Z,1
2023-03-10T20:10:49.051Z,1
2023-03-10T20:12:52.267Z,1
2023-03-10T20:14:48.736Z,1
2023-03-10T20:16:51.904Z,1
2023-03-10T20:18:49.058Z,1
2023-03-10T20:20:52.118Z,1
2023-03-10T20:22:49.190Z,1
2023-03-10T20:24:52.237Z,1
2023-03-10T20:26:49.037Z,1
2023-03-10T20:28:52.255Z,1
2023-03-10T20:30:49.031Z,1
2023-03-10T20:32:51.861Z,1
2023-03-10T20:34:48.900Z,1
2023-03-10T20:36:49.079Z,1
2023-03-10T20:38:53.946Z,1
2023-03-10T20:40:49.121Z,1
2023-03-10T20:42:52.272Z,1
2023-03-10T20:44:52.208Z,1
2023-03-10T20:46:48.759Z,1
2023-03-10T20:48:49.029Z,1
2023-03-10T20:50:54.341Z,1
2023-03-10T20:52:49.162Z,1
2023-03-10T20:54:48.999Z,1
2023-03-10T20:56:50.563Z,1
2023-03-10T20:58:47.109Z,1
2023-03-10T21:00:49.121Z,1
2023-03-10T21:02:52.632Z,1
2023-03-10T21:04:49.115Z,1
2023-03-10T21:06:52.230Z,1
2023-03-10T21:08:49.107Z,1
2023-03-10T21:10:48.856Z,1
2023-03-10T21:12:49.133Z,1
2023-03-10T21:14:53.408Z,1
2023-03-10T21:16:49.305Z,1
2023-03-10T21:18:50.813Z,1
2023-03-10T21:20:49.099Z,1
2023-03-10T21:22:52.243Z,1
2023-03-10T21:24:52.230Z,1
2023-03-10T21:26:49.199Z,1
2023-03-10T21:28:49.062Z,1
2023-03-10T21:30:49.115Z,1
2023-03-10T21:32:49.136Z,1
2023-03-10T21:34:49.122Z,1
2023-03-10T21:36:50.478Z,1
2023-03-10T21:38:52.170Z,1
2023-03-10T21:40:49.170Z,1
2023-03-10T21:42:52.539Z,1
2023-03-10T21:44:49.173Z,1
2023-03-10T21:46:50.889Z,1
2023-03-10T21:48:52.237Z,1
2023-03-10T21:50:49.058Z,1
2023-03-10T21:52:51.830Z,1
2023-03-10T21:54:52.193Z,1
2023-03-10T21:56:52.299Z,1
2023-03-10T21:58:49.143Z,1
2023-03-10T22:00:49.252Z,1
2023-03-10T22:02:52.344Z,1
2023-03-10T22:04:49.196Z,1
2023-03-10T22:06:49.151Z,1
2023-03-10T22:08:54.443Z,1
2023-03-10T22:10:49.131Z,1
2023-03-10T22:12:52.294Z,1
2023-03-10T22:14:49.164Z,1
2023-03-10T22:16:49.181Z,1
2023-03-10T22:18:49.257Z,1
2023-03-10T22:22:52.213Z,1
2023-03-10T22:24:52.262Z,1
2023-03-10T22:26:49.193Z,1
2023-03-10T22:28:49.215Z,1
2023-03-10T22:30:52.368Z,1
2023-03-10T22:32:49.159Z,1
2023-03-10T22:34:53.535Z,1
2023-03-10T22:36:49.093Z,1
2023-03-10T22:38:48.758Z,1
2023-03-10T22:40:50.527Z,1
2023-03-10T22:42:52.248Z,1
2023-03-10T22:44:49.155Z,1
2023-03-10T22:46:49.249Z,1
2023-03-10T22:48:50.899Z,1
2023-03-10T22:50:52.188Z,1
2023-03-10T22:52:52.261Z,1
2023-03-10T22:54:49.116Z,1
2023-03-10T22:56:49.177Z,1
2023-03-10T22:58:53.187Z,1
2023-03-10T23:00:49.233Z,1
2023-03-10T23:02:49.230Z,1
2023-03-10T23:08:52.225Z,1
2023-03-10T23:10:48.815Z,1
2023-03-10T23:12:49.202Z,1
2023-03-10T23:14:52.659Z,1
2023-03-10T23:16:49.197Z,1
2023-03-10T23:18:49.103Z,1
2023-03-10T23:20:48.847Z,1
2023-03-10T23:22:49.099Z,1
2023-03-10T23:24:55.222Z,1
2023-03-10T23:26:49.194Z,1
2023-03-10T23:28:49.225Z,1
2023-03-10T23:30:55.301Z,1
2023-03-10T23:32:52.268Z,1
2023-03-10T23:36:55.324Z,1
2023-03-10T23:38:52.259Z,1
2023-03-10T23:40:52.316Z,1
2023-03-10T23:42:49.176Z,1
2023-03-10T23:44:49.168Z,1
2023-03-10T23:46:55.361Z,1
2023-03-10T23:48:49.048Z,1
2023-03-10T23:50:52.393Z,1
2023-03-10T23:52:49.180Z,1
2023-03-10T23:54:49.187Z,1
2023-03-10T23:56:50.525Z,1
2023-03-10T23:58:52.271Z,1
